createdAt,value
2019-02-05T00:02:58.612Z,3.00
2019-02-05T00:11:14.897Z,3.00
2019-02-05T00:15:23.141Z,3.10
2019-02-05T00:19:31.545Z,3.10
2019-02-05T00:23:39.760Z,3.00
2019-02-05T00:27:48.033Z,3.10
2019-02-05T00:31:56.274Z,3.10
2019-02-05T00:36:04.504Z,3.10
2019-02-05T00:40:12.767Z,3.10
2019-02-05T00:44:20.994Z,3.10
2019-02-05T00:48:29.243Z,3.10
2019-02-05T00:52:37.462Z,3.10
2019-02-05T00:56:45.681Z,3.10
2019-02-05T01:00:53.929Z,3.10
2019-02-05T01:05:02.162Z,3.20
2019-02-05T01:09:10.352Z,3.20
2019-02-05T01:13:18.586Z,3.20
2019-02-05T01:17:26.844Z,3.20
2019-02-05T01:21:35.080Z,3.20
2019-02-05T01:25:43.299Z,3.20
2019-02-05T01:29:51.565Z,3.20
2019-02-05T01:33:59.802Z,3.20
2019-02-05T01:38:08.077Z,3.20
2019-02-05T01:42:16.360Z,3.20
2019-02-05T01:46:24.590Z,3.20
2019-02-05T01:50:32.821Z,3.20
2019-02-05T01:54:41.085Z,3.20
2019-02-05T01:58:49.318Z,3.20
2019-02-05T02:02:57.537Z,3.20
2019-02-05T02:07:05.800Z,3.10
2019-02-05T02:11:14.068Z,3.10
2019-02-05T02:15:22.338Z,3.10
2019-02-05T02:19:30.578Z,3.10
2019-02-05T02:23:38.795Z,3.20
2019-02-05T02:27:47.433Z,3.20
2019-02-05T02:31:55.654Z,3.20
2019-02-05T02:36:03.923Z,3.20
2019-02-05T02:40:12.190Z,3.20
2019-02-05T02:44:20.464Z,3.20
2019-02-05T02:48:28.711Z,3.10
2019-02-05T02:52:36.937Z,3.10
2019-02-05T02:56:45.213Z,3.20
2019-02-05T03:00:53.471Z,3.20
2019-02-05T03:05:01.737Z,3.20
2019-02-05T03:09:10.378Z,3.20
2019-02-05T03:13:18.640Z,3.20
2019-02-05T03:17:26.908Z,3.20
2019-02-05T03:21:35.153Z,3.20
2019-02-05T03:25:43.409Z,3.20
2019-02-05T03:29:51.693Z,3.20
2019-02-05T03:33:59.888Z,3.20
2019-02-05T03:38:08.143Z,3.20
2019-02-05T03:42:16.364Z,3.20
2019-02-05T03:46:24.649Z,3.20
2019-02-05T03:50:34.588Z,3.20
2019-02-05T03:55:57.978Z,3.20
2019-02-05T04:00:33.261Z,3.20
2019-02-05T04:06:03.954Z,3.30
2019-02-05T04:10:59.635Z,3.20
2019-02-05T04:15:32.310Z,3.20
2019-02-05T04:19:53.210Z,3.20
2019-02-05T04:26:15.969Z,3.30
2019-02-05T04:30:49.368Z,3.20
2019-02-05T04:35:23.509Z,3.20
2019-02-05T04:39:44.038Z,3.20
2019-02-05T04:44:05.948Z,3.20
2019-02-05T04:48:28.055Z,3.20
2019-02-05T04:54:50.664Z,3.20
2019-02-05T04:59:11.820Z,3.20
2019-02-05T05:03:33.900Z,3.30
2019-02-05T05:08:54.056Z,3.20
2019-02-05T05:13:02.330Z,3.30
2019-02-05T05:17:10.668Z,3.20
2019-02-05T05:21:19.270Z,3.20
2019-02-05T05:25:27.593Z,3.30
2019-02-05T05:29:35.855Z,3.20
2019-02-05T05:33:44.149Z,3.30
2019-02-05T05:37:52.405Z,3.30
2019-02-05T05:42:00.653Z,3.30
2019-02-05T05:46:08.913Z,3.30
2019-02-05T05:50:17.117Z,3.30
2019-02-05T05:54:25.382Z,3.30
2019-02-05T05:58:33.640Z,3.30
2019-02-05T06:02:41.872Z,3.30
2019-02-05T06:06:50.177Z,3.30
2019-02-05T06:10:58.390Z,3.30
2019-02-05T06:19:15.393Z,3.30
2019-02-05T06:23:23.798Z,3.30
2019-02-05T06:27:32.098Z,3.30
2019-02-05T06:31:40.351Z,3.30
2019-02-05T06:35:48.609Z,3.30
2019-02-05T06:39:56.819Z,3.30
2019-02-05T06:44:05.128Z,3.30
2019-02-05T06:48:13.425Z,3.20
2019-02-05T06:52:21.697Z,3.30
2019-02-05T06:56:29.969Z,3.30
2019-02-05T07:00:38.278Z,3.30
2019-02-05T07:04:46.481Z,3.30
2019-02-05T07:08:54.758Z,3.30
2019-02-05T07:13:03.119Z,3.30
2019-02-05T07:17:11.349Z,3.30
2019-02-05T07:21:19.625Z,3.30
2019-02-05T07:25:27.909Z,3.30
2019-02-05T07:29:36.136Z,3.30
2019-02-05T07:33:44.519Z,3.30
2019-02-05T07:37:52.805Z,3.30
2019-02-05T07:42:01.099Z,3.30
2019-02-05T07:46:09.465Z,3.30
2019-02-05T07:50:20.263Z,3.30
2019-02-05T07:54:28.509Z,3.40
2019-02-05T07:58:36.746Z,3.40
2019-02-05T08:02:45.007Z,3.40
2019-02-05T08:06:53.273Z,3.40
2019-02-05T08:11:01.606Z,3.40
2019-02-05T08:15:11.625Z,3.40
2019-02-05T08:19:19.926Z,3.40
2019-02-05T08:23:28.205Z,3.40
2019-02-05T08:27:37.228Z,3.50
2019-02-05T08:31:44.790Z,3.50
2019-02-05T08:35:53.080Z,3.50
2019-02-05T08:40:01.351Z,3.50
2019-02-05T08:44:09.652Z,3.50
2019-02-05T08:48:18.006Z,3.60
2019-02-05T08:52:26.322Z,3.60
2019-02-05T08:56:34.665Z,3.60
2019-02-05T09:00:43.112Z,3.60
2019-02-05T09:04:51.273Z,3.60
2019-02-05T09:08:59.601Z,3.70
2019-02-05T09:13:07.872Z,3.70
2019-02-05T09:17:16.167Z,3.80
2019-02-05T09:21:24.497Z,3.80
2019-02-05T09:25:32.773Z,3.80
2019-02-05T09:29:41.039Z,3.80
2019-02-05T09:33:49.299Z,3.80
2019-02-05T09:37:57.996Z,3.90
2019-02-05T09:42:05.893Z,3.90
2019-02-05T09:50:22.203Z,3.90
2019-02-05T09:54:30.470Z,3.90
2019-02-05T09:58:38.722Z,3.90
2019-02-05T10:02:47.035Z,3.90
2019-02-05T10:06:55.299Z,3.90
2019-02-05T10:11:03.574Z,3.90
2019-02-05T10:15:14.975Z,3.90
2019-02-05T10:19:23.259Z,3.90
2019-02-05T10:23:31.545Z,4.00
2019-02-05T10:27:39.863Z,4.00
2019-02-05T10:31:48.132Z,4.00
2019-02-05T10:35:56.465Z,4.00
2019-02-05T10:40:05.381Z,4.10
2019-02-05T10:44:13.682Z,4.10
2019-02-05T10:48:21.969Z,4.10
2019-02-05T10:52:30.296Z,4.20
2019-02-05T10:56:39.167Z,4.20
2019-02-05T11:00:47.447Z,4.30
2019-02-05T11:04:55.801Z,4.30
2019-02-05T11:09:05.053Z,4.60
2019-02-05T11:13:13.422Z,4.50
2019-02-05T11:17:21.754Z,4.50
2019-02-05T11:21:29.940Z,4.50
2019-02-05T11:25:38.219Z,4.50
2019-02-05T11:29:46.504Z,4.50
2019-02-05T11:33:54.790Z,4.50
2019-02-05T11:42:11.139Z,4.50
2019-02-05T11:46:19.471Z,4.50
2019-02-05T11:50:27.758Z,4.50
2019-02-05T11:58:44.023Z,4.60
2019-02-05T12:02:52.309Z,4.60
2019-02-05T12:07:00.569Z,4.60
2019-02-05T12:11:08.948Z,4.50
2019-02-05T12:15:17.262Z,4.60
2019-02-05T12:19:25.491Z,4.60
2019-02-05T12:23:33.893Z,4.60
2019-02-05T12:27:42.139Z,4.60
2019-02-05T12:31:50.393Z,4.60
2019-02-05T12:35:58.662Z,4.50
2019-02-05T12:40:08.435Z,4.60
2019-02-05T12:44:16.721Z,4.60
2019-02-05T12:48:25.007Z,4.50
2019-02-05T12:52:33.284Z,4.50
2019-02-05T12:56:41.620Z,4.60
2019-02-05T13:00:57.323Z,4.60
2019-02-05T13:05:00.365Z,4.60
2019-02-05T13:09:09.146Z,4.60
2019-02-05T13:13:18.363Z,4.70
2019-02-05T13:17:25.646Z,4.80
2019-02-05T13:21:33.891Z,4.80
2019-02-05T13:25:42.194Z,4.80
2019-02-05T13:29:50.467Z,4.80
2019-02-05T13:33:58.738Z,4.80
2019-02-05T13:38:07.011Z,4.90
2019-02-05T13:42:15.279Z,4.90
2019-02-05T13:46:23.693Z,5.00
2019-02-05T13:50:33.674Z,5.00
2019-02-05T13:54:40.506Z,4.90
2019-02-05T13:58:48.789Z,4.90
2019-02-05T14:02:57.069Z,4.90
2019-02-05T14:07:05.344Z,4.90
2019-02-05T14:11:13.630Z,4.90
2019-02-05T14:15:23.156Z,5.00
2019-02-05T14:19:31.443Z,5.00
2019-02-05T14:23:39.708Z,4.90
2019-02-05T14:27:47.985Z,4.90
2019-02-05T14:31:56.231Z,5.00
2019-02-05T14:36:04.565Z,5.00
2019-02-05T14:40:14.804Z,5.00
2019-02-05T14:44:23.084Z,4.90
2019-02-05T14:48:31.434Z,5.00
2019-02-05T14:52:39.698Z,5.00
2019-02-05T14:56:47.990Z,5.00
2019-02-05T15:00:56.257Z,5.00
2019-02-05T15:05:05.019Z,5.00
2019-02-05T15:09:13.285Z,5.10
2019-02-05T15:13:21.521Z,5.10
2019-02-05T15:17:29.765Z,5.00
2019-02-05T15:21:38.039Z,5.10
2019-02-05T15:25:46.341Z,5.10
2019-02-05T15:29:54.598Z,5.10
2019-02-05T15:34:05.596Z,5.10
2019-02-05T15:38:13.859Z,5.10
2019-02-05T15:42:22.148Z,5.20
2019-02-05T15:46:30.457Z,5.20
2019-02-05T15:50:38.821Z,5.20
2019-02-05T15:54:47.127Z,5.20
2019-02-05T15:58:55.407Z,5.20
2019-02-05T16:03:03.799Z,5.20
2019-02-05T16:07:12.088Z,5.20
2019-02-05T16:11:20.400Z,5.20
2019-02-05T16:15:28.650Z,5.10
2019-02-05T16:19:36.928Z,5.10
2019-02-05T16:23:45.170Z,5.20
2019-02-05T16:27:53.432Z,5.10
2019-02-05T16:32:01.704Z,5.10
2019-02-05T16:36:10.007Z,5.10
2019-02-05T16:40:21.347Z,5.10
2019-02-05T16:44:29.653Z,5.10
2019-02-05T16:48:37.958Z,5.10
2019-02-05T16:52:46.257Z,5.10
2019-02-05T16:56:54.593Z,5.10
2019-02-05T17:01:02.891Z,5.10
2019-02-05T17:05:11.285Z,5.10
2019-02-05T17:09:19.525Z,5.00
2019-02-05T17:13:27.777Z,4.90
2019-02-05T17:17:36.050Z,5.00
2019-02-05T17:21:44.277Z,5.00
2019-02-05T17:25:52.535Z,5.00
2019-02-05T17:30:00.760Z,5.00
2019-02-05T17:34:09.004Z,5.00
2019-02-05T17:38:17.261Z,5.00
2019-02-05T17:42:25.506Z,5.00
2019-02-05T17:46:33.782Z,5.00
2019-02-05T17:50:42.042Z,5.00
2019-02-05T17:54:50.425Z,5.00
2019-02-05T17:58:58.728Z,4.90
2019-02-05T18:03:07.013Z,4.90
2019-02-05T18:07:15.341Z,4.90
2019-02-05T18:15:32.438Z,4.90
2019-02-05T18:19:40.677Z,4.90
2019-02-05T18:23:48.979Z,4.90
2019-02-05T18:27:57.301Z,4.90
2019-02-05T18:32:05.558Z,4.90
2019-02-05T18:36:13.815Z,4.80
2019-02-05T18:40:22.749Z,4.80
2019-02-05T18:44:31.029Z,4.80
2019-02-05T18:48:39.313Z,4.80
2019-02-05T18:52:47.610Z,4.80
2019-02-05T18:56:55.874Z,4.80
2019-02-05T19:01:04.426Z,4.90
2019-02-05T19:05:12.772Z,4.90
2019-02-05T19:09:21.050Z,4.90
2019-02-05T19:13:29.334Z,4.90
2019-02-05T19:17:37.689Z,4.80
2019-02-05T19:21:45.982Z,4.90
2019-02-05T19:26:01.438Z,4.80
2019-02-05T19:30:10.710Z,4.80
2019-02-05T19:34:18.973Z,4.80
2019-02-05T19:38:27.248Z,4.90
2019-02-05T19:42:35.539Z,4.90
2019-02-05T19:50:57.528Z,4.90
2019-02-05T19:55:05.986Z,4.80
2019-02-05T19:59:14.287Z,4.80
2019-02-05T20:03:22.553Z,4.80
2019-02-05T20:07:30.817Z,4.80
2019-02-05T20:11:39.084Z,4.70
2019-02-05T20:15:47.395Z,4.70
2019-02-05T20:19:55.678Z,4.60
2019-02-05T20:24:04.078Z,4.60
2019-02-05T20:28:12.322Z,4.50
2019-02-05T20:32:20.703Z,4.50
2019-02-05T20:36:28.937Z,4.40
2019-02-05T20:44:45.277Z,4.50
2019-02-05T20:48:53.569Z,4.40
2019-02-05T20:53:13.052Z,4.40
2019-02-05T20:57:10.126Z,4.30
2019-02-05T21:01:18.433Z,4.20
2019-02-05T21:05:26.703Z,4.20
2019-02-05T21:09:34.996Z,4.20
2019-02-05T21:13:43.266Z,4.20
2019-02-05T21:17:51.632Z,4.20
2019-02-05T21:21:59.925Z,4.10
2019-02-05T21:26:08.210Z,4.10
2019-02-05T21:30:18.186Z,4.00
2019-02-05T21:34:26.444Z,3.90
2019-02-05T21:38:34.722Z,3.90
2019-02-05T21:46:51.092Z,3.90
2019-02-05T21:50:59.364Z,3.90
2019-02-05T21:59:16.609Z,3.80
2019-02-05T22:03:24.909Z,3.70
2019-02-05T22:07:33.169Z,3.70
2019-02-05T22:11:41.486Z,3.60
2019-02-05T22:15:49.741Z,3.50
2019-02-05T22:19:58.006Z,3.50
2019-02-05T22:24:06.283Z,3.50
2019-02-05T22:28:14.552Z,3.50
2019-02-05T22:32:22.869Z,3.50
2019-02-05T22:36:31.181Z,3.40
2019-02-05T22:40:39.425Z,3.40
2019-02-05T22:44:47.693Z,3.40
2019-02-05T22:48:55.933Z,3.40
2019-02-05T22:53:04.285Z,3.30
2019-02-05T22:57:12.608Z,3.10
2019-02-05T23:01:31.105Z,3.20
2019-02-05T23:05:56.009Z,3.30
2019-02-05T23:11:21.446Z,3.20
2019-02-05T23:15:29.774Z,3.30
2019-02-05T23:19:38.061Z,3.20
2019-02-05T23:23:46.350Z,3.10
2019-02-05T23:27:54.694Z,3.10
2019-02-05T23:32:03.004Z,3.20
2019-02-05T23:36:11.291Z,3.20
2019-02-05T23:40:19.561Z,3.10
2019-02-05T23:44:27.843Z,3.10
2019-02-05T23:48:36.113Z,3.10
2019-02-05T23:52:44.458Z,3.10
2019-02-05T23:56:52.693Z,3.10
